地図

経路データ

SID SEASON NUMBER BASIN SUBBASIN NAME ISO_TIME NATURE LAT LON WMO_WIND WMO_PRES WMO_AGENCY TRACK_TYPE DIST2LAND LANDFALL IFLAG USA_AGENCY USA_ATCF_ID USA_LAT USA_LON USA_RECORD USA_STATUS USA_WIND USA_PRES USA_SSHS USA_R34_NE USA_R34_SE USA_R34_SW USA_R34_NW USA_R50_NE USA_R50_SE USA_R50_SW USA_R50_NW USA_R64_NE USA_R64_SE USA_R64_SW USA_R64_NW USA_POCI USA_ROCI USA_RMW USA_EYE TOKYO_LAT TOKYO_LON TOKYO_GRADE TOKYO_WIND TOKYO_PRES TOKYO_R50_DIR TOKYO_R50_LONG TOKYO_R50_SHORT TOKYO_R30_DIR TOKYO_R30_LONG TOKYO_R30_SHORT TOKYO_LAND CMA_LAT CMA_LON CMA_CAT CMA_WIND CMA_PRES HKO_LAT HKO_LON HKO_CAT HKO_WIND HKO_PRES NEWDELHI_LAT NEWDELHI_LON NEWDELHI_GRADE NEWDELHI_WIND NEWDELHI_PRES NEWDELHI_CI NEWDELHI_DP NEWDELHI_POCI REUNION_LAT REUNION_LON REUNION_TYPE REUNION_WIND REUNION_PRES REUNION_TNUM REUNION_CI REUNION_RMW REUNION_R34_NE REUNION_R34_SE REUNION_R34_SW REUNION_R34_NW REUNION_R50_NE REUNION_R50_SE REUNION_R50_SW REUNION_R50_NW REUNION_R64_NE REUNION_R64_SE REUNION_R64_SW REUNION_R64_NW BOM_LAT BOM_LON BOM_TYPE BOM_WIND BOM_PRES BOM_TNUM BOM_CI BOM_RMW BOM_R34_NE BOM_R34_SE BOM_R34_SW BOM_R34_NW BOM_R50_NE BOM_R50_SE BOM_R50_SW BOM_R50_NW BOM_R64_NE BOM_R64_SE BOM_R64_SW BOM_R64_NW BOM_ROCI BOM_POCI BOM_EYE BOM_POS_METHOD BOM_PRES_METHOD NADI_LAT NADI_LON NADI_CAT NADI_WIND NADI_PRES WELLINGTON_LAT WELLINGTON_LON WELLINGTON_WIND WELLINGTON_PRES DS824_LAT DS824_LON DS824_STAGE DS824_WIND DS824_PRES TD9636_LAT TD9636_LON TD9636_STAGE TD9636_WIND TD9636_PRES TD9635_LAT TD9635_LON TD9635_WIND TD9635_PRES TD9635_ROCI NEUMANN_LAT NEUMANN_LON NEUMANN_CLASS NEUMANN_WIND NEUMANN_PRES MLC_LAT MLC_LON MLC_CLASS MLC_WIND MLC_PRES USA_GUST BOM_GUST BOM_GUST_PER REUNION_GUST REUNION_GUST_PER USA_SEAHGT USA_SEARAD_NE USA_SEARAD_SE USA_SEARAD_SW USA_SEARAD_NW STORM_SPEED STORM_DIR
1989010N16212 1989 4 EP CP WINONA 1989-01-09 12:00:00 NR 15.9000 211.700 25 cphc main 797 746 O_________O___ jtwc_wp WP011989 15.9000 -148.300 25 -1 15.9000 -148.300 1 25 10 288
1989010N16212 1989 4 EP CP WINONA 1989-01-09 15:00:00 NR 16.0545 211.209 main 740 689 P_________P___ WP011989 16.0603 -148.805 25 -1 16.0430 -148.765 1 25 10 287
1989010N16212 1989 4 EP CP WINONA 1989-01-09 18:00:00 NR 16.1928 210.719 25 cphc main 689 647 O_________P___ jtwc_wp WP011989 16.2000 -149.300 25 -1 16.1784 -149.244 1 25 10 285
1989010N16212 1989 4 EP CP WINONA 1989-01-09 21:00:00 NR 16.3047 210.226 main 638 588 P_________P___ WP011989 16.3073 -149.785 25 -1 16.2997 -149.751 1 25 10 282
1989010N16212 1989 4 EP CP WINONA 1989-01-10 00:00:00 NR 16.4000 209.700 25 cphc main 588 540 O_________O___ jtwc_wp WP011989 16.4000 -150.300 25 -1 16.4000 -150.300 1 25 11 280
1989010N16212 1989 4 EP CP WINONA 1989-01-10 03:00:00 NR 16.4924 209.129 main 531 476 P_________P___ WP011989 16.4997 -150.855 25 -1 16.4779 -150.903 1 25 12 279
1989010N16212 1989 4 EP CP WINONA 1989-01-10 06:00:00 NR 16.5845 208.478 25 cphc main 476 415 O_________P___ jtwc_wp WP011989 16.6000 -151.500 25 -1 16.5535 -151.567 1 25 14 278
1989010N16212 1989 4 EP CP WINONA 1989-01-10 09:00:00 NR 16.6740 207.731 main 407 344 P_________P___ WP011989 16.6848 -152.255 25 -1 16.6524 -152.298 1 25 15 278
1989010N16212 1989 4 EP CP WINONA 1989-01-10 12:00:00 NR 16.8000 206.900 25 cphc main 344 282 O_________O___ jtwc_wp WP011989 16.8000 -153.100 25 -1 16.8000 -153.100 1 25 17 280
1989010N16212 1989 4 EP CP WINONA 1989-01-10 15:00:00 NR 16.9769 206.004 main 278 208 P_________P___ WP011989 16.9621 -153.970 25 -1 17.0065 -154.046 1 25 18 283
1989010N16212 1989 4 EP CP WINONA 1989-01-10 18:00:00 NR 17.2211 205.050 25 cphc main 204 156 O_________P___ jtwc_wp WP011989 17.2000 -154.900 25 -1 17.2632 -155.051 1 25 20 287
1989010N16212 1989 4 EP CP WINONA 1989-01-10 21:00:00 NR 17.5345 204.037 main 159 148 P_________P___ WP011989 17.5203 -155.930 25 -1 17.5629 -156.031 1 25 20 290
1989010N16212 1989 4 EP CP WINONA 1989-01-11 00:00:00 NR 17.9000 203.100 25 cphc main 168 168 O_________O___ jtwc_wp WP011989 17.9000 -156.900 25 -1 17.9000 -156.900 1 25 18 295
1989010N16212 1989 4 EP CP WINONA 1989-01-11 03:00:00 NR 18.2913 202.355 main 200 200 P_________P___ WP011989 18.2921 -157.698 25 -1 18.2896 -157.539 1 25 15 303
1989010N16212 1989 4 EP CP WINONA 1989-01-11 06:00:00 NR 18.7038 201.779 25 cphc main 246 246 O_________P___ jtwc_wp WP011989 18.7000 -158.300 25 -1 18.7114 -158.063 1 25 13 312
1989010N16212 1989 4 EP CP WINONA 1989-01-11 09:00:00 NR 19.1238 201.370 main 251 222 P_________P___ WP011989 19.1219 -158.681 25 -1 19.1276 -158.530 1 25 11 317
1989010N16212 1989 4 EP CP WINONA 1989-01-11 12:00:00 NR 19.5000 201.000 25 cphc main 222 212 O_________O___ jtwc_wp WP011989 19.5000 -159.000 25 -1 19.5000 -159.000 1 25 10 309
1989010N16212 1989 4 EP CP WINONA 1989-01-11 15:00:00 NR 19.7849 200.512 main 222 218 P_________P___ WP011989 19.7798 -159.455 25 -1 19.7951 -159.553 1 25 11 298
1989010N16212 1989 4 EP CP WINONA 1989-01-11 18:00:00 NR 20.0131 199.960 25 cphc main 221 213 O_________P___ jtwc_wp WP011989 20.0000 -160.000 25 -1 20.0392 -160.121 1 25 12 292
1989010N16212 1989 4 EP CP WINONA 1989-01-11 21:00:00 NR 20.2280 199.337 main 221 216 P_________P___ WP011989 20.2226 -160.642 25 -1 20.2387 -160.703 1 25 12 288
1989010N16212 1989 4 EP CP WINONA 1989-01-12 00:00:00 NR 20.4000 198.700 25 cphc main 237 237 O_________O___ jtwc_wp WP011989 20.4000 -161.300 25 -1 20.4000 -161.300 1 25 12 285
1989010N16212 1989 4 EP CP WINONA 1989-01-12 03:00:00 NR 20.5201 198.133 main 274 274 P_________P___ WP011989 20.5144 -161.843 25 -1 20.5315 -161.916 1 26 11 281
1989010N16212 1989 4 EP CP WINONA 1989-01-12 06:00:00 NR 20.6099 197.552 25 cphc main 311 311 O_________P___ jtwc_wp WP011989 20.6000 -162.400 25 -1 20.6296 -162.544 1 27 12 279
1989010N16212 1989 4 EP CP WINONA 1989-01-12 09:00:00 NR 20.7044 196.880 main 371 371 P_________P___ WP011989 20.7001 -163.093 27 -1 20.7128 -163.175 1 28 13 279
1989010N16212 1989 4 EP CP WINONA 1989-01-12 12:00:00 NR 20.8000 196.200 30 cphc main 435 435 O_________O___ jtwc_wp WP011989 20.8000 -163.800 30 -1 20.8000 -163.800 1 30 12 280
1989010N16212 1989 4 EP CP WINONA 1989-01-12 15:00:00 NR 20.9112 195.590 main 491 491 P_________P___ WP011989 20.8921 -164.415 30 -1 20.9493 -164.398 1 30 11 282
1989010N16212 1989 4 EP CP WINONA 1989-01-12 18:00:00 NR 21.0337 195.003 30 cphc main 549 549 O_________P___ jtwc_wp WP011989 21.0000 -165.000 30 -1 21.1012 -164.991 1 30 11 284
1989010N16212 1989 4 EP CP WINONA 1989-01-12 21:00:00 NR 21.1906 194.409 main 606 606 P_________P___ WP011989 21.1722 -165.592 30 -1 21.2274 -165.589 1 30 12 283
1989010N16212 1989 4 EP CP WINONA 1989-01-13 00:00:00 NR 21.3000 193.800 30 cphc main 665 665 O_________O___ jtwc_wp WP011989 21.3000 -166.200 30 -1 21.3000 -166.200 1 30 12 275
1989010N16212 1989 4 EP CP WINONA 1989-01-13 03:00:00 NR 21.2826 193.169 main 727 727 P_________P___ WP011989 21.2873 -166.843 30 -1 21.2731 -166.808 1 30 12 265
1989010N16212 1989 4 EP CP WINONA 1989-01-13 06:00:00 NR 21.1977 192.522 30 cphc main 800 800 O_________P___ jtwc_wp WP011989 21.2000 -167.500 30 -1 21.1930 -167.434 1 30 12 262
1989010N16212 1989 4 EP CP WINONA 1989-01-13 09:00:00 NR 21.1068 191.889 main 863 863 P_________P___ WP011989 21.1144 -168.120 30 -1 21.0915 -168.093 1 30 12 261
1989010N16212 1989 4 EP CP WINONA 1989-01-13 12:00:00 NR 21.0000 191.200 30 cphc main 937 937 O_________O___ jtwc_wp WP011989 21.0000 -168.800 30 -1 21.0000 -168.800 1 30 14 260
1989010N16212 1989 4 EP CP WINONA 1989-01-13 15:00:00 NR 20.8661 190.373 main 1021 1021 P_________P___ WP011989 20.8201 -169.628 32 -1 20.9580 -169.623 1 32 16 262
1989010N16212 1989 4 EP CP WINONA 1989-01-13 18:00:00 NR 20.7765 189.504 35 cphc main 1115 1115 O_________P___ jtwc_wp WP011989 20.7000 -170.500 35 0 20.9296 -170.487 1 35 16 268
1989010N16212 1989 4 EP CP WINONA 1989-01-13 21:00:00 NR 20.8221 188.655 main 1197 1197 P_________P___ WP011989 20.7776 -171.352 37 0 20.9112 -171.333 1 37 15 275
1989010N16212 1989 4 EP CP WINONA 1989-01-14 00:00:00 NR 20.9000 187.900 40 cphc main 1278 1278 O_________O___ jtwc_wp WP011989 20.9000 -172.100 40 0 20.9000 -172.100 2 40 12 274
1989010N16212 1989 4 EP CP WINONA 1989-01-14 03:00:00 NR 20.9047 187.354 main 1329 1329 P_________P___ WP011989 20.9143 -172.638 40 0 20.8854 -172.662 2 40 10 270
1989010N16212 1989 4 EP CP WINONA 1989-01-14 06:00:00 NR 20.8935 186.883 40 cphc main 1381 1381 O_________P___ jtwc_wp WP011989 20.9000 -173.100 40 0 20.8804 -173.150 2 40 9 269
1989010N16212 1989 4 EP CP WINONA 1989-01-14 09:00:00 NR 20.8898 186.384 main 1432 1432 P_________P___ WP011989 20.8920 -173.605 40 0 20.8854 -173.638 2 40 10 270
1989010N16212 1989 4 EP CP WINONA 1989-01-14 12:00:00 NR 20.9000 185.800 40 cphc main 1494 1494 O_________O___ jtwc_wp WP011989 20.9000 -174.200 40 0 20.9000 -174.200 2 40 12 273
1989010N16212 1989 4 EP CP WINONA 1989-01-14 15:00:00 NR 20.9460 185.058 main 1566 1566 P_________P___ WP011989 20.9500 -174.955 40 0 20.9380 -174.918 2 40 15 274
1989010N16212 1989 4 EP CP WINONA 1989-01-14 18:00:00 NR 20.9932 184.226 40 cphc main 1657 1657 O_________P___ jtwc_wp WP011989 21.0000 -175.800 40 0 20.9795 -175.721 2 40 16 272
1989010N16212 1989 4 EP CP WINONA 1989-01-14 21:00:00 NR 21.0066 183.390 main 1740 1740 P_________P___ WP011989 21.0068 -176.620 40 0 21.0062 -176.589 2 40 16 270
1989010N16212 1989 4 EP CP WINONA 1989-01-15 00:00:00 NR 21.0000 182.500 40 cphc main 1833 1833 O_________O___ jtwc_wp WP011989 21.0000 -177.500 40 0 21.0000 -177.500 2 40 17 270
1989010N16212 1989 4 EP CP WINONA 1989-01-15 03:00:00 NR 20.9938 181.550 main 1936 1936 P_________P___ WP011989 21.0300 -178.492 40 0 20.9549 -178.398 2 40 18 268
1989010N16212 1989 4 EP CP WINONA 1989-01-15 06:00:00 NR 20.9492 180.567 40 cphc main 2030 2030 OO________P___ jtwc_wp WP011989 21.0000 -179.500 40 0 21.0000 180.500 7 1012 0 0 0 20.8730 -179.332 2 40 18 265
1989010N16212 1989 4 WP MM WINONA 1989-01-15 09:00:00 NR 20.8353 179.617 main 2134 2134 PP________P___ WP011989 20.8140 179.600 40 0 21.0391 179.488 7 1012 0 0 20.7546 179.699 2 40 18 262
1989010N16212 1989 4 WP MM WINONA 1989-01-15 12:00:00 TS 20.7091 178.645 1012 tokyo main 2239 2239 OO________O___ jtwc_wp WP011989 20.6000 178.700 40 0 21.0000 178.500 2 1012 0 0 0 20.6000 178.700 2 40 18 262
1989010N16212 1989 4 WP MM WINONA 1989-01-15 15:00:00 TS 20.5886 177.663 main 2333 2333 PP________P___ WP011989 20.5219 177.731 40 0 20.8237 177.538 2 1012 0 0 20.4202 177.719 2 40 19 260
1989010N16212 1989 4 WP MM WINONA 1989-01-15 18:00:00 TS 20.3685 176.635 1012 tokyo main 2450 2450 OO________P___ jtwc_wp WP011989 20.4000 176.700 40 0 20.5000 176.500 2 1012 0 0 0 20.2056 176.705 2 40 21 254
1989010N16212 1989 4 WP MM WINONA 1989-01-15 21:00:00 TS 20.0291 175.521 main 2570 2570 PP________P___ WP011989 20.0866 175.637 40 0 20.0373 175.287 2 1012 0 0 19.9633 175.639 2 40 23 251
1989010N16212 1989 4 WP MM WINONA 1989-01-16 00:00:00 TS 19.6333 174.333 1012 tokyo main 2701 2701 OO________O___ jtwc_wp WP011989 19.7000 174.500 40 0 19.5000 174.000 2 1012 0 0 0 19.7000 174.500 2 40 24 251
1989010N16212 1989 4 WP MM WINONA 1989-01-16 03:00:00 TS 19.2332 173.111 main 2833 2833 PP________P___ WP011989 19.3343 173.288 40 0 18.9617 172.750 2 1011 0 0 19.4036 173.295 2 40 25 252
1989010N16212 1989 4 WP MM WINONA 1989-01-16 06:00:00 TS 18.8633 171.839 1010 tokyo main 2974 2974 OO________P___ jtwc_wp WP011989 19.0000 172.000 40 0 18.5000 171.500 2 1010 0 0 0 19.0898 172.018 2 40 25 255
1989010N16212 1989 4 WP MM WINONA 1989-01-16 09:00:00 TS 18.5757 170.533 main 3115 3074 PP________P___ WP011989 18.7344 170.666 40 0 18.2117 170.251 2 1010 0 0 18.7810 170.682 2 40 26 258
1989010N16212 1989 4 WP MM WINONA 1989-01-16 12:00:00 TS 18.3333 169.200 1010 tokyo main 3067 2964 OO________O___ jtwc_wp WP011989 18.5000 169.300 40 0 18.0000 169.000 2 1010 0 0 0 18.5000 169.300 2 40 26 259
1989010N16212 1989 4 WP MM WINONA 1989-01-16 15:00:00 TS 18.0856 167.871 main 2964 2864 PP________P___ WP011989 18.2334 167.980 40 0 17.7492 167.750 2 1009 0 0 18.2743 167.883 2 40 26 259
1989010N16212 1989 4 WP MM WINONA 1989-01-16 18:00:00 TS 17.8587 166.508 1008 tokyo main 2858 2762 OO________P___ jtwc_wp WP011989 18.0000 166.600 40 0 17.5000 166.500 2 1008 0 0 0 18.0762 166.425 2 40 27 261
1989010N16212 1989 4 WP MM WINONA 1989-01-16 21:00:00 TS 17.6480 165.085 main 2747 2658 PP________P___ WP011989 17.8426 165.051 40 0 17.2117 165.250 2 1008 0 0 17.8898 164.954 2 40 27 262
1989010N16212 1989 4 WP MM WINONA 1989-01-17 00:00:00 TS 17.4667 163.667 1008 tokyo main 2658 2569 OO________O___ jtwc_wp WP011989 17.7000 163.500 40 0 17.0000 164.000 2 1008 0 0 0 17.7000 163.500 2 40 27 263
1989010N16212 1989 4 WP MM WINONA 1989-01-17 03:00:00 TS 17.3106 162.310 main 2564 2494 PP________P___ WP011989 17.5133 162.128 40 0 16.9617 162.751 2 1008 0 0 17.4567 162.051 2 40 26 263
1989010N16212 1989 4 WP MM WINONA 1989-01-17 06:00:00 TS 17.1705 160.977 1008 tokyo main 2489 2409 OO________P___ jtwc_wp WP011989 17.3000 160.800 40 0 17.0000 161.500 2 1008 0 0 0 17.2116 160.630 2 40 26 263
1989010N16212 1989 4 WP MM WINONA 1989-01-17 09:00:00 TS 17.0044 159.610 main 2404 2345 PP________P___ WP011989 17.0278 159.347 40 0 16.9999 160.213 2 1008 0 0 16.9855 159.269 2 40 25 263
1989010N16212 1989 4 WP MM WINONA 1989-01-17 12:00:00 TS 16.8667 158.333 1008 tokyo main 2341 2294 OO________O___ jtwc_wp WP011989 16.8000 158.000 40 0 17.0000 159.000 2 1008 0 0 0 16.8000 158.000 2 40 23 265
1989010N16212 1989 4 WP MM WINONA 1989-01-17 15:00:00 TS 16.8008 157.266 main 2294 2263 PP________P___ WP011989 16.7258 156.956 40 0 16.9983 158.000 2 1006 0 0 16.6782 156.843 2 40 20 267
1989010N16212 1989 4 WP MM WINONA 1989-01-17 18:00:00 TS 16.7716 156.272 1004 tokyo main 2263 2223 OOOO______P___ jtwc_wp WP011989 16.7000 156.000 40 0 17.0000 157.000 2 1004 0 0 0 16.7000 156.700 1 29 1002 16.9000 156.000 TD 30 1000 16.6006 155.776 2 40 20 268
1989010N16212 1989 4 WP MM WINONA 1989-01-17 21:00:00 TS 16.7401 155.130 main 2221 2199 PPPP______P___ WP011989 16.5999 154.900 40 0 16.9999 155.787 2 1003 0 0 16.8362 155.503 1 29 1002 16.7899 154.624 TD 30 1000 16.5478 154.770 2 40 22 268
1989010N16212 1989 4 WP MM WINONA 1989-01-18 00:00:00 TS 16.7111 153.972 35 1002 tokyo main 2199 2184 OOOO______O___ jtwc_wp WP011989 16.5000 153.800 40 0 17.0000 154.500 3 35 1002 0 9 60 60 0 16.9000 154.300 1 29 1002 16.7000 153.400 TD 30 1000 16.5000 153.800 2 40 22 269
1989010N16212 1989 4 WP MM WINONA 1989-01-18 03:00:00 TS 16.6863 152.871 main 2184 2152 PPPP______P___ WP011989 16.4495 152.770 42 0 17.0374 153.213 3 35 1002 0 9 60 60 16.8448 153.105 1 29 1002 16.6489 152.425 TD 32 998 16.4508 152.843 2 42 20 267
1989010N16212 1989 4 WP MM WINONA 1989-01-18 06:00:00 TS 16.6198 151.862 35 1002 tokyo main 2152 2120 OOOO______P___ jtwc_wp WP011989 16.4000 151.800 45 0 17.0000 152.000 3 35 1002 0 9 60 60 0 16.7000 152.000 1 29 1002 16.6000 151.600 TS 35 997 16.3989 151.909 2 45 19 264
1989010N16212 1989 4 WP MM WINONA 1989-01-18 09:00:00 TS 16.4918 150.942 main 2118 2082 PPPP______P___ WP011989 16.3217 150.900 47 0 16.7864 150.962 3 35 1002 0 9 60 60 16.5064 151.078 1 29 1001 16.5218 150.800 TS 37 996 16.3227 150.971 2 47 18 260
1989010N16212 1989 4 WP MM WINONA 1989-01-18 12:00:00 TS 16.3200 150.040 35 1002 tokyo main 2080 2059 OOOO______O___ jtwc_wp WP011989 16.2000 150.000 50 0 16.5000 150.000 3 35 1002 0 9 60 60 0 16.3000 150.200 1 29 1000 16.4000 150.000 TS 40 995 16.2000 150.000 2 50 18 259
1989010N16212 1989 4 WP MM WINONA 1989-01-18 15:00:00 TS 16.1428 149.107 main 2047 2017 PPPP______P___ WP011989 16.0294 149.038 50 0 16.2713 149.046 3 35 1002 0 9 75 75 16.1565 149.260 1 29 1000 16.2514 149.176 TS 37 996 16.0055 149.017 2 51 19 258
1989010N16212 1989 4 WP MM WINONA 1989-01-18 18:00:00 TS 15.9126 148.078 35 1002 tokyo main 2017 1982 OOOO______P___ jtwc_wp WP011989 15.8000 148.000 50 0 16.0000 148.000 3 35 1002 0 9 90 90 0 16.0000 148.200 1 29 1000 16.0000 148.200 TS 35 997 15.7629 147.992 2 52 22 255
1989010N16212 1989 4 WP MM WINONA 1989-01-18 21:00:00 TS 15.5854 146.879 main 1982 1950 PPPP______P___ WP011989 15.5141 146.910 52 0 15.6081 146.707 3 35 1001 0 9 90 90 15.7505 146.915 1 29 1000 15.5650 146.967 TS 35 997 15.4891 146.896 2 53 25 254
1989010N16212 1989 4 WP MM WINONA 1989-01-19 00:00:00 TS 15.2400 145.600 35 1000 tokyo main 1941 1927 OOOO______O___ jtwc_wp WP011989 15.2000 145.700 55 0 15.2000 145.400 3 35 1000 0 9 90 90 0 15.5000 145.600 1 29 1000 15.1000 145.600 TS 35 997 15.2000 145.700 2 55 25 256
1989010N16212 1989 4 WP MM WINONA 1989-01-19 03:00:00 TS 14.9690 144.391 main 1930 1907 PPPP______P___ WP011989 14.8996 144.345 55 0 14.8825 144.403 3 35 1000 0 9 90 90 15.3999 144.562 1 33 997 14.7764 144.281 TS 35 997 14.8865 144.366 2 55 25 257
1989010N16212 1989 4 WP MM WINONA 1989-01-19 06:00:00 TS 14.6926 143.087 35 1000 tokyo main 1904 1764 OOOO______P___ jtwc_wp WP011989 14.6000 142.900 55 0 14.6000 143.300 3 35 1000 0 9 90 90 0 15.2000 143.400 2 38 995 14.5000 142.900 TS 35 997 14.5631 142.937 2 55 28 257
1989010N16212 1989 4 WP MM WINONA 1989-01-19 09:00:00 TS 14.3271 141.570 main 1754 1588 PPPP______P___ WP011989 14.2694 141.450 55 0 14.2927 141.755 3 35 1001 0 9 90 90 14.6236 141.758 2 38 995 14.1920 141.423 TS 32 998 14.2579 141.465 2 55 31 257
1989010N16212 1989 4 WP MM WINONA 1989-01-19 12:00:00 TS 13.9800 139.980 35 1002 tokyo main 1578 1412 OOOO______O___ jtwc_wp WP011989 14.0000 140.000 55 0 14.0000 140.000 3 35 1002 0 9 90 90 0 14.0000 140.000 2 38 995 13.9000 139.900 TD 30 1000 14.0000 140.000 2 55 31 259
1989010N16212 1989 4 WP MM WINONA 1989-01-19 15:00:00 TS 13.7212 138.441 main 1402 1251 PPPP______P___ WP011989 13.8767 138.586 50 0 13.7048 138.227 3 1003 0 9 13.6383 138.486 2 38 995 13.5824 138.355 TD 27 1001 13.8039 138.552 2 51 30 262
1989010N16212 1989 4 WP MM WINONA 1989-01-19 18:00:00 TS 13.5520 136.945 1004 tokyo main 1241 1091 OOOO______P___ jtwc_wp WP011989 13.8000 137.200 45 0 13.5000 136.500 2 1004 0 0 0 13.4000 137.000 2 38 995 13.4000 136.900 TD 25 1003 13.6599 137.125 2 47 29 265
1989010N16212 1989 4 WP MM WINONA 1989-01-19 21:00:00 TS 13.4561 135.469 main 1091 952 PPPP______P___ WP011989 13.6347 135.805 42 0 13.4625 134.851 2 1004 0 0 13.1110 135.302 2 38 995 13.5116 135.626 TD 25 1003 13.5607 135.760 2 43 27 268
1989010N16212 1989 4 WP MM WINONA 1989-01-20 00:00:00 TS 13.4400 134.160 1004 tokyo main 952 847 OOOO______O___ jtwc_wp WP011989 13.5000 134.500 40 0 13.5000 133.500 2 1004 0 0 0 13.0000 133.800 2 38 995 13.7000 134.500 TD 25 1003 13.5000 134.500 2 40 23 271
1989010N16212 1989 4 WP MM WINONA 1989-01-20 03:00:00 TS 13.4856 133.131 main 837 753 PPPP______P___ WP011989 13.4769 133.333 35 0 13.4981 132.675 2 1004 0 0 13.2383 132.839 2 33 997 13.7368 133.462 TD 27 1001 13.4779 133.346 2 37 19 274
1989010N16212 1989 4 WP MM WINONA 1989-01-20 06:00:00 TS 13.5580 132.240 1004 tokyo main 743 658 OOOO______P___ jtwc_wp WP011989 13.5000 132.300 30 -1 13.5000 132.000 2 1004 0 0 0 13.6000 132.100 1 29 1000 13.7000 132.500 TD 30 1000 13.4898 132.301 2 35 18 274
1989010N16212 1989 4 WP MM WINONA 1989-01-20 09:00:00 TS 13.6097 131.302 main 648 554 PPPP______P___ WP011989 13.5145 131.355 30 -1 13.5379 131.000 2 1004 0 0 13.8820 131.265 1 29 1001 13.6071 131.535 TD 30 1000 13.5069 131.355 2 32 18 272
1989010N16212 1989 4 WP MM WINONA 1989-01-20 12:00:00 TS 13.6053 130.389 1004 tokyo main 554 467 OOOO______O___ jtwc_wp WP011989 13.5000 130.500 30 -1 13.5000 130.000 2 1004 0 0 0 14.0000 130.400 1 29 1002 13.5000 130.600 TD 30 1000 13.5000 130.500 1 30 17 266
1989010N16212 1989 4 WP MM WINONA 1989-01-20 15:00:00 TS 13.4797 129.527 main 457 378 PPPP______P___ WP011989 13.4149 129.655 30 -1 13.2494 129.212 2 1004 0 0 13.8176 129.434 1 26 1002 13.4356 129.693 TD 30 1000 13.4591 129.723 1 30 16 259
1989010N16212 1989 4 WP MM WINONA 1989-01-20 18:00:00 TS 13.3099 128.767 1004 tokyo main 378 313 OOOO______P___ jtwc_wp WP011989 13.3000 128.900 30 -1 13.0000 128.500 2 1004 0 0 0 13.5000 128.500 1 23 1002 13.4000 128.800 TD 30 1000 13.3872 129.026 1 30 14 258
1989010N16212 1989 4 WP MM WINONA 1989-01-20 21:00:00 TS 13.1998 128.129 main 303 249 PPP_______P___ WP011989 13.2445 128.285 30 -1 12.9381 127.763 2 1005 0 0 13.2276 127.705 1 23 1003 TD 13.2719 128.367 1 30 12 259
1989010N16212 1989 4 WP MM WINONA 1989-01-21 00:00:00 TS 13.0800 127.560 1006 tokyo main 249 176 OOO_______O___ jtwc_wp WP011989 13.1000 127.700 30 -1 13.0000 127.000 2 1006 0 0 0 13.0000 127.000 1 23 1004 13.1000 127.700 1 30 12 248
1989010N16212 1989 4 WP MM WINONA 1989-01-21 03:00:00 NR 12.7673 127.015 main 176 89 P_________P___ WP011989 12.7148 127.030 27 -1 2 0 0 1 12.8197 127.000 1 28 14 241
1989010N16212 1989 4 WP MM WINONA 1989-01-21 06:00:00 NR 12.3953 126.290 main 89 10 O_________P___ jtwc_wp WP011989 12.3000 126.300 25 -1 12.4907 126.281 1 27 16 246
1989010N16212 1989 4 WP MM WINONA 1989-01-21 09:00:00 NR 12.1107 125.515 main 10 0 P_________P___ WP011989 12.0550 125.508 25 -1 12.1664 125.522 1 26 16 252
1989010N16212 1989 4 WP MM WINONA 1989-01-21 12:00:00 NR 11.9000 124.700 main 10 0 O_________O___ jtwc_wp WP011989 11.9000 124.700 25 -1 11.9000 124.700 1 25 16 257
1989010N16212 1989 4 WP MM WINONA 1989-01-21 15:00:00 NR 11.7537 123.905 main 10 10 P_________P___ WP011989 11.7766 124.010 22 -1 11.7309 123.801 1 23 17 262
1989010N16212 1989 4 WP MM WINONA 1989-01-21 18:00:00 NR 11.6718 123.018 main 24 0 O_________P___ jtwc_wp WP011989 11.7000 123.200 20 -1 11.6436 122.837 1 22 19 266
1989010N16212 1989 4 WP MM WINONA 1989-01-21 21:00:00 NR 11.6281 121.961 main 10 10 P_________P___ WP011989 11.6467 122.092 20 -1 11.6095 121.829 1 21 22 268
1989010N16212 1989 4 WP MM WINONA 1989-01-22 00:00:00 NR 11.6000 120.800 main 74 O_________O___ jtwc_wp WP011989 11.6000 120.800 20 -1 11.6000 120.800 1 20 23 269

IBTrACS Databaseについて

本データベースは、米国NOAAが公開する1842年以降の世界の熱帯低気圧のベストトラックデータアーカイブInternational Best Track Archive for Climate Stewardship (IBTrACS)を、ウェブで閲覧しやすい形式に変換したものです。

最終更新日:2021-10-08